Home   Weather   Germany   Rheine   Past weeks
Flag for Germany

Past Weather in Rheine, North Rhine-Westphalia, Germany — Yesterday and Last 2 Weeks

Currently: 77 °F. Light rain. Clear. (Weather station: Muenster / Osnabrueck, Germany). See more current weather

Past Weather in Rheine — Graph

°F

Rheine Temperature Yesterday

Maximum temperature yesterday: 90 °F (at 3:50 pm)
Minimum temperature yesterday: 68 °F (at 5:20 am)
Average temperature yesterday: 79 °F

High & Low Weather Summary for the Past Weeks

 TemperatureHumidityPressure
High93 °F (Aug 4, 1:50 pm)100% (Jul 31, 11:20 pm)30.36 "Hg (Jul 31, 11:20 pm)
Low46 °F (Aug 6, 5:50 am)21% (Aug 12, 5:20 pm)29.62 "Hg (Aug 15, 3:50 am)
Average71 °F60%30.09 "Hg
* Reported Jul 31 1:20 pm — Aug 15 1:50 pm, Rheine. Weather by CustomWeather, © 2022

Note: Actual official high and low records may vary slightly from our data, if they occured in-between our weather recording intervals... More about our weather records

Rheine Weather History for the Previous 24 Hours

Scroll right to see more
 ConditionsComfort  
Time TempWeatherWind HumidityBarometerVisibility
1:50 pm
Mon, Aug 15
75 °FRain showers. Passing clouds.8 mph54%29.68 "HgN/A
1:20 pm77 °FSprinkles. Passing clouds.10 mph47%29.65 "HgN/A
12:50 pm77 °FPassing clouds.6 mph51%29.65 "HgN/A
12:20 pm77 °FPassing clouds.10 mph47%29.65 "HgN/A
11:50 am77 °FSunny.13 mph47%29.65 "Hg10 mi
11:20 am77 °FPassing clouds.9 mph47%29.65 "HgN/A
10:50 am77 °FPassing clouds.7 mph51%29.65 "HgN/A
10:20 am75 °FPassing clouds.10 mph54%29.65 "HgN/A
9:50 am77 °FPassing clouds.8 mph51%29.62 "HgN/A
9:20 am77 °FPassing clouds.9 mph51%29.62 "HgN/A
8:50 am77 °FPassing clouds.5 mph54%29.62 "HgN/A
8:20 am73 °FPassing clouds.5 mph61%29.62 "HgN/A
7:50 am73 °FPassing clouds.5 mph61%29.62 "HgN/A
7:20 am70 °FPassing clouds.5 mph69%29.62 "HgN/A
6:50 am70 °FSunny.2 mph69%29.62 "Hg10 mi
6:20 am70 °FSunny.2 mph69%29.62 "Hg10 mi
5:50 am70 °FClear.1 mph69%29.62 "Hg10 mi
5:20 am72 °FClear.5 mph61%29.62 "Hg10 mi
4:50 am70 °FClear.2 mph69%29.62 "Hg10 mi
4:20 am72 °FClear.2 mph61%29.62 "Hg10 mi
3:50 am72 °FClear.1 mph61%29.62 "Hg10 mi
3:20 am72 °FPassing clouds.3 mph61%29.65 "HgN/A
2:50 am73 °FPassing clouds.5 mph57%29.65 "HgN/A
1:20 am73 °FClear.2 mph65%29.65 "Hg10 mi
12:50 am73 °FClear.2 mph65%29.65 "Hg10 mi
12:20 am73 °FPassing clouds.3 mph65%29.65 "HgN/A
11:20 pm
Sun, Aug 14
79 °FRain showers. Passing clouds.3 mph51%29.68 "HgN/A
10:50 pm79 °FRain showers. Passing clouds.5 mph51%29.68 "HgN/A
10:20 pm77 °FScattered showers. Passing clouds.2 mph54%29.68 "HgN/A
9:50 pm81 °FClear.2 mph48%29.68 "Hg10 mi
9:20 pm82 °FClear.3 mph45%29.68 "Hg10 mi
8:20 pm84 °FSunny.2 mph40%29.68 "Hg10 mi
7:20 pm86 °FPassing clouds.6 mph38%29.68 "HgN/A
6:20 pm88 °FPassing clouds.9 mph35%29.71 "HgN/A
5:50 pm90 °FSunny.7 mph33%29.71 "Hg10 mi
5:20 pm88 °FPassing clouds.7 mph35%29.71 "HgN/A
4:50 pm88 °FPassing clouds.7 mph35%29.71 "HgN/A
4:20 pm88 °FSunny.8 mph35%29.71 "Hg10 mi
3:50 pm90 °FSunny.7 mph33%29.74 "Hg10 mi
3:20 pm88 °FPassing clouds.9 mph38%29.74 "HgN/A
Weather by CustomWeather, © 2022

See weather overview